Stanley, ID

6:57 PM MST on December 08, 2016 (GMT -0700)
Stanley | | Change Station
Active Advisory: Winter Storm Warning

Elev 6496 ft 44.17 °N, 114.93 °W | Updated 6 minutes ago

Snow
Snow
3 °F
Feels Like 3 °F
N
0
Wind Variable Wind from North

Today
High -- | Low -- °F
--% Chance of Precip.
Yesterday
High -- | Low -- °F
Precip. -- in
Pressure 30.30 in
Visibility -9999.0 miles
Clouds
Dew Point -1 °F
Humidity 84%
Rainfall 0.15 in
Snow Depth Not available.
8:02 AM 5:00 PM
Waxing Gibbous, 69% visible
METAR KSNT 090151Z AUTO 00000KT M16/M18 A2997 RMK AO1 SLP258 P0005 T11611183
Pressure 30.30 in
Visibility -9999.0 miles
Clouds
Dew Point -1 °F
Humidity 84%
Rainfall 0.15 in
Snow Depth Not available.
8:02 AM 5:00 PM
Waxing Gibbous, 69% visible
METAR KSNT 090151Z AUTO 00000KT M16/M18 A2997 RMK AO1 SLP258 P0005 T11611183

10-Day Weather Forecast

Almanac

Astronomy

Dec. 08, 2016 Rise Set
Actual Time
Civil Twilight
Nautical Twilight
Astronomical Twilight
Moon
Length of Visible Light
Length of Day
Tomorrow will be .
, % of the Moon is Illuminated

Today's Extremes

State Highs State Lows

Community

WunderPhotos

Upload Photos

1,956,351 photos uploaded!

WunderBlog® & News

Nearby

Air Quality

  Air Quality AQ Index Pollutant
Not available.

Snow Depth

Station Depth Elevation

Earthquake Activity

City Distance Mag. Time & Date
Minimum magnitude displayed is 2.5.

Coastal Water Temperatures

Place Temperature

Stations

Nearby Weather Stations

Station Location Temp. Windchill Dew Point Humidity Wind Precip. Elev Updated Type
                   

Watches & Warnings

Winter Storm Warning
Issued: 2:10 PM MST Dec. 8, 2016 – National Weather Service

... Winter Storm Warning remains in effect until 5 PM MST
Saturday...

* impacts... moderate to heavy snowfall will accumulate on
roadways resulting in slick surfaces and reduced visibility.

* Timing... continuing through Saturday. Occasional breaks in the
snowfall will be possible, and snow may change to rain in lower
elevations south of Hailey Friday afternoon.

* Snow accumulations... 16 to 20 inches through Saturday above
7000 ft. 4 to 10 inches through Saturday at valley floors.

* Locations... Stanley... Clayton... Hailey... Ketchum... Bellevue

Precautionary/preparedness actions...

A Winter Storm Warning for heavy snow means severe winter weather
conditions are expected or occurring. Significant amounts of snow
are forecast that will make travel dangerous. Only travel in an
emergency. If you must travel... keep an extra flashlight... food
and water in your vehicle in case of an emergency.